Latest Weather Observations for Broome

IDW60801

Issued at 11:14 pm WST Saturday 23 January 2021 (issued every 10 minutes, with the page automatically refreshed every 10 minutes)

About weather observations | Map of weather stations | Latest weather observations for WA | Other Formats
Station Details ID: 003003 Name: BROOME AIRPORT Lat: -17.95 Lon: 122.24 Height: 7.42 m
Data from the previous 72 hours. | See also: Recent months at Broome
Date/Time
WST
Temp
°C
App
Temp
°C
Dew
Point
°C
Rel
Hum
%
Delta-T
°C
Wind Press
QNH
hPa
Press
MSL
hPa
Rain since
9am
mm
Dir  Spd
km/h
Gust
km/h
Spd
kts
Gust
kts
23/11:00pm 29.4 32.8 25.3 78 2.9 WNW 17 26 9 14 1005.5 1005.4 3.8
23/10:30pm 29.5 32.9 25.2 77 3.0 WNW 17 24 9 13 1005.8 1005.7 3.8
23/10:00pm 29.7 32.5 24.9 75 3.4 WNW 19 24 10 13 1005.9 1005.8 3.8
23/09:30pm 29.7 32.4 25.0 76 3.3 WNW 20 28 11 15 1005.8 1005.7 3.8
23/09:00pm 29.6 32.9 25.1 77 3.2 WNW 17 22 9 12 1005.7 1005.6 3.8
23/08:30pm 29.7 32.5 25.0 76 3.3 WNW 19 24 10 13 1005.2 1005.1 3.8
23/08:00pm 29.9 32.7 24.9 74 3.5 W 19 26 10 14 1005.0 1004.9 3.8
23/07:30pm 30.0 32.4 24.6 73 3.8 W 20 28 11 15 1004.6 1004.5 3.8
23/07:00pm 30.1 32.8 24.7 73 3.8 WNW 19 26 10 14 1004.5 1004.4 3.8
23/06:30pm 30.1 32.6 24.8 73 3.7 W 20 28 11 15 1004.2 1004.1 3.8
23/06:00pm 30.6 33.1 24.8 71 4.1 W 20 30 11 16 1004.1 1004.0 3.8
23/05:30pm 30.5 32.8 25.1 73 3.8 WNW 22 35 12 19 1003.7 1003.6 3.8
23/05:00pm 31.0 33.0 25.2 71 4.1 WNW 24 32 13 17 1003.4 1003.3 3.8
23/04:30pm 31.1 32.8 25.3 71 4.1 WNW 26 37 14 20 1003.5 1003.4 3.8
23/04:00pm 30.2 33.3 26.3 79 2.8 NW 22 32 12 17 1003.3 1003.2 3.8
23/03:30pm 29.9 33.2 26.6 82 2.4 NW 22 32 12 17 1003.2 1003.1 3.8
23/03:00pm 28.4 32.2 25.9 86 1.8 NW 17 24 9 13 1003.6 1003.5 3.8
23/02:41pm 27.2 30.7 25.4 90 1.3 NNW 17 20 9 11 1003.6 1003.5 3.8
23/02:30pm 27.5 30.1 24.9 86 1.8 NW 20 43 11 23 1003.4 1003.3 3.8
23/02:24pm 27.0 28.1 25.0 89 1.4 WNW 28 46 15 25 1003.4 1003.3 3.8
23/02:20pm 27.9 29.4 25.6 87 1.6 NW 28 46 15 25 1003.6 1003.5 1.4
23/02:00pm 30.6 33.9 26.6 79 2.9 NNW 22 33 12 18 1003.2 1003.1 0.0
23/01:30pm 30.7 33.9 26.4 78 3.1 NW 22 32 12 17 1003.3 1003.2 0.0
23/01:00pm 31.3 33.9 26.1 74 3.7 NW 24 37 13 20 1003.5 1003.4 0.0
23/12:30pm 31.6 34.6 26.2 73 3.9 WNW 22 33 12 18 1003.4 1003.3 0.0
23/12:00pm 30.5 33.2 26.3 78 3.0 WNW 24 33 13 18 1003.7 1003.6 0.0
23/11:30am 31.7 34.3 26.6 74 3.7 WNW 26 37 14 20 1003.7 1003.6 0.0
23/11:00am 31.1 33.0 26.2 75 3.5 WNW 28 39 15 21 1004.1 1004.0 0.0
23/10:30am 30.8 32.5 25.9 75 3.5 WNW 28 37 15 20 1004.3 1004.2 0.0
23/10:00am 31.9 34.6 25.6 69 4.5 NW 22 33 12 18 1004.4 1004.3 0.0
23/09:30am 30.6 33.4 25.2 73 3.8 NW 20 33 11 18 1004.9 1004.8 0.0
23/09:00am 31.0 32.5 24.9 70 4.3 WNW 26 35 14 19 1004.8 1004.7 5.6
23/08:30am 30.6 32.4 24.9 71 4.0 NW 24 37 13 20 1004.6 1004.5 5.6
23/08:00am 30.4 30.7 24.2 69 4.3 NW 30 41 16 22 1004.2 1004.1 5.6
23/07:30am 30.1 31.3 24.5 72 3.9 WNW 26 43 14 23 1003.8 1003.7 5.6
23/07:00am 30.1 30.6 23.9 69 4.3 WNW 28 39 15 21 1003.7 1003.6 5.6
23/06:30am 29.7 31.3 23.8 70 4.1 NW 22 35 12 19 1003.1 1003.0 5.6
23/06:00am 29.4 29.9 23.3 69 4.2 WNW 26 33 14 18 1003.1 1003.0 5.6
23/05:30am 29.2 30.6 23.6 72 3.9 WNW 22 30 12 16 1002.9 1002.8 5.6
23/05:00am 29.1 30.4 23.3 71 4.0 WNW 22 30 12 16 1002.3 1002.2 5.6
23/04:30am 29.0 29.2 23.5 72 3.8 WNW 28 37 15 20 1002.0 1001.9 5.6
23/04:00am 28.9 29.8 23.4 72 3.8 WNW 24 39 13 21 1001.6 1001.5 5.6
23/03:30am 28.8 29.1 23.0 71 4.0 WNW 26 41 14 22 1001.6 1001.5 5.6
23/03:00am 28.7 29.2 23.3 72 3.7 WNW 26 37 14 20 1001.6 1001.5 5.6
23/02:30am 28.7 28.7 23.0 71 3.9 WNW 28 39 15 21 1001.5 1001.4 5.6
23/02:00am 28.4 29.4 24.1 77 3.0 WNW 26 39 14 21 1001.5 1001.4 5.6
23/01:30am 28.5 29.3 23.1 72 3.7 NW 24 39 13 21 1001.7 1001.6 5.6
23/01:00am 28.2 29.9 24.0 78 2.9 NW 22 32 12 17 1001.8 1001.7 5.6
23/12:30am 28.5 29.4 23.3 73 3.6 NW 24 32 13 17 1002.1 1002.0 5.4
23/12:00am 28.5 29.8 23.3 73 3.6 WNW 22 35 12 19 1002.5 1002.4 5.4
 
Date/Time
WST
Temp
°C
App
Temp
°C
Dew
Point
°C
Rel
Hum
%
Delta-T
°C
Wind Press
QNH
hPa
Press
MSL
hPa
Rain since
9am
mm
Dir  Spd
km/h
Gust
km/h
Spd
kts
Gust
kts
22/11:30pm 28.2 30.4 24.3 79 2.7 NW 20 30 11 16 1002.6 1002.5 5.4
22/11:00pm 28.3 30.3 24.0 77 3.0 NW 20 33 11 18 1003.0 1002.9 5.4
22/10:30pm 27.9 30.5 24.6 82 2.3 NW 19 30 10 16 1003.2 1003.1 5.4
22/10:00pm 28.4 30.6 23.9 76 3.1 NNW 19 26 10 14 1003.1 1003.0 5.4
22/09:30pm 28.4 31.3 24.4 79 2.8 NW 17 24 9 13 1002.8 1002.7 5.4
22/09:00pm 28.3 30.4 23.7 76 3.2 NW 19 28 10 15 1002.3 1002.2 5.4
22/08:30pm 28.8 30.6 23.6 73 3.6 NW 20 30 11 16 1002.3 1002.2 5.4
22/08:00pm 28.9 30.8 23.4 72 3.8 NW 19 28 10 15 1002.1 1002.0 5.4
22/07:30pm 28.9 30.0 23.1 71 4.0 NW 22 32 12 17 1001.7 1001.6 5.4
22/07:00pm 28.9 30.2 23.4 72 3.8 WNW 22 32 12 17 1001.2 1001.1 5.4
22/06:30pm 28.9 30.0 23.7 73 3.6 WNW 24 33 13 18 1000.8 1000.7 5.4
22/06:00pm 29.0 30.8 24.3 76 3.3 NW 22 32 12 17 1000.5 1000.4 5.4
22/05:30pm 29.4 30.5 24.4 74 3.5 WNW 26 37 14 20 1000.3 1000.2 5.4
22/05:00pm 28.7 31.1 24.6 78 2.9 WNW 20 32 11 17 1000.2 1000.1 5.4
22/04:30pm 28.7 31.9 25.9 85 2.0 NW 20 30 11 16 1000.0 999.9 5.4
22/04:00pm 28.9 31.3 25.8 83 2.2 NW 24 32 13 17 1000.0 999.9 5.4
22/03:30pm 28.7 29.9 25.7 84 2.1 NW 30 43 16 23 1000.0 999.9 5.4
22/03:00pm 28.1 30.3 26.0 88 1.5 NW 26 44 14 24 999.9 999.8 5.4
22/02:30pm 27.3 29.6 26.2 94 0.8 N 26 44 14 24 1000.3 1000.2 4.0
22/02:24pm 28.6 31.5 25.9 85 1.9 N 22 37 12 20 1000.0 999.9 3.2
22/02:00pm 29.3 31.8 25.9 82 2.4 NNW 24 39 13 21 1000.3 1000.2 3.2
22/01:30pm 27.3 29.8 26.0 93 0.9 N 24 44 13 24 1000.8 1000.7 3.0
22/01:25pm 28.2 31.6 26.1 88 1.5 N 20 32 11 17 1000.7 1000.6 2.2
22/01:10pm 27.5 31.4 26.1 92 1.0 N 17 26 9 14 1000.9 1000.8 2.2
22/01:00pm 27.1 30.3 25.8 93 0.9 N 20 30 11 16 1001.1 1001.0 2.2
22/12:57pm 27.0 30.3 26.0 94 0.7 N 20 28 11 15 1001.1 1001.0 2.2
22/12:53pm 27.1 30.5 25.8 93 0.9 N 19 26 10 14 1001.3 1001.2 1.8
22/12:30pm 27.4 29.9 25.4 89 1.4 N 22 33 12 18 1001.5 1001.4 1.0
22/12:25pm 28.6 30.3 24.6 79 2.8 N 24 35 13 19 1001.4 1001.3 0.0
22/12:00pm 29.1 30.3 24.5 76 3.2 N 26 43 14 23 1001.6 1001.5 0.0
22/11:30am 30.0 32.1 24.7 73 3.7 N 22 39 12 21 1002.0 1001.9 0.0
22/11:00am 29.6 30.7 24.9 76 3.3 NNW 28 41 15 22 1002.5 1002.4 0.0
22/10:50am 29.8 30.9 25.0 75 3.4 N 28 46 15 25 1002.4 1002.3 0.0
22/10:30am 29.6 31.9 25.7 79 2.8 N 24 37 13 20 1002.8 1002.7 0.0
22/10:24am 29.3 31.4 25.9 82 2.4 N 26 41 14 22 1002.8 1002.7 0.0
22/10:00am 28.8 32.0 26.4 87 1.7 NNE 22 32 12 17 1002.6 1002.5 0.0
22/09:30am 27.2 29.7 25.9 93 0.9 NNE 24 35 13 19 1003.0 1002.9 0.0
22/09:00am 26.5 29.7 25.8 96 0.5 NE 20 28 11 15 1003.0 1002.9 21.6
22/08:44am 26.5 29.5 25.6 95 0.6 NE 20 32 11 17 1002.9 1002.8 21.4
22/08:30am 26.3 29.2 25.4 95 0.6 NE 20 26 11 14 1002.9 1002.8 21.4
22/08:00am 26.1 28.8 25.1 94 0.7 NE 20 30 11 16 1002.8 1002.7 21.4
22/07:52am 26.1 28.8 25.1 94 0.7 NE 20 32 11 17 1002.8 1002.7 21.2
22/07:39am 25.9 28.9 25.2 96 0.5 NE 19 26 10 14 1002.8 1002.7 21.2
22/07:30am 26.1 28.8 25.1 94 0.7 NE 20 28 11 15 1002.9 1002.8 20.8
22/07:16am 26.3 29.0 25.0 92 0.9 NE 20 28 11 15 1003.0 1002.9 19.6
22/07:00am 26.2 28.7 24.8 92 1.0 NNE 20 26 11 14 1002.9 1002.8 19.6
22/06:30am 26.0 28.1 24.7 92 0.9 NE 22 32 12 17 1002.6 1002.5 19.6
22/06:06am 26.0 28.5 25.3 96 0.5 NE 22 32 12 17 1002.5 1002.4 19.2
22/06:00am 26.0 28.5 25.3 96 0.5 NE 22 33 12 18 1002.5 1002.4 19.2
22/05:51am 25.9 28.7 25.3 96 0.4 NE 20 35 11 19 1002.4 1002.3 19.2
22/05:30am 25.8 30.0 25.4 98 0.3 ENE 13 19 7 10 1002.3 1002.2 18.6
22/05:01am 25.6 29.7 25.2 98 0.3 NE 13 19 7 10 1002.2 1002.1 17.8
22/05:00am 25.6 29.8 25.3 98 0.2 NE 13 19 7 10 1002.2 1002.1 17.8
22/04:52am 25.7 29.5 25.3 98 0.3 NE 15 22 8 12 1002.1 1002.0 17.6
22/04:50am 25.7 29.4 25.1 96 0.4 NE 15 22 8 12 1002.2 1002.1 17.6
22/04:49am 25.7 29.5 25.3 98 0.3 NE 15 22 8 12 1002.2 1002.1 17.6
22/04:31am 25.8 30.0 25.4 98 0.3 NNE 13 20 7 11 1002.6 1002.5 16.4
22/04:30am 25.8 30.0 25.4 98 0.3 NNE 13 20 7 11 1002.6 1002.5 16.0
22/04:14am 25.9 30.1 25.3 96 0.4 NE 13 24 7 13 1002.2 1002.1 9.4
22/04:00am 26.0 29.4 25.3 96 0.5 NE 17 20 9 11 1002.1 1002.0 8.2
22/03:30am 26.0 29.3 25.1 95 0.6 ENE 17 24 9 13 1001.6 1001.5 7.6
22/03:00am 26.0 28.9 25.1 95 0.6 ENE 19 30 10 16 1001.4 1001.3 7.6
22/02:30am 26.0 28.8 25.0 94 0.7 ENE 19 33 10 18 1002.2 1002.1 7.6
22/02:00am 26.1 28.8 24.8 92 0.9 ENE 19 32 10 17 1002.7 1002.6 7.6
22/01:30am 26.1 28.8 25.0 94 0.8 ENE 20 28 11 15 1002.4 1002.3 7.6
22/01:00am 26.1 28.8 25.1 94 0.7 ENE 20 28 11 15 1002.7 1002.6 7.6
22/12:30am 26.1 29.2 25.4 96 0.5 ENE 19 26 10 14 1003.5 1003.4 7.6
22/12:26am 26.1 29.2 25.4 96 0.5 ENE 19 28 10 15 1003.6 1003.5 7.6
22/12:00am 26.1 29.1 25.5 96 0.4 E 20 28 11 15 1003.8 1003.7 7.6
 
Date/Time
WST
Temp
°C
App
Temp
°C
Dew
Point
°C
Rel
Hum
%
Delta-T
°C
Wind Press
QNH
hPa
Press
MSL
hPa
Rain since
9am
mm
Dir  Spd
km/h
Gust
km/h
Spd
kts
Gust
kts
21/11:47pm 26.1 29.1 25.5 96 0.4 E 20 28 11 15 1004.1 1004.0 7.6
21/11:30pm 26.1 29.4 25.7 98 0.3 E 19 26 10 14 1004.3 1004.2 7.6
21/11:00pm 26.1 29.3 25.5 96 0.4 E 19 28 10 15 1004.5 1004.4 7.6
21/10:46pm 26.1 29.8 25.7 98 0.3 E 17 22 9 12 1004.9 1004.8 7.6
21/10:30pm 26.1 29.6 25.5 96 0.4 E 17 24 9 13 1005.2 1005.1 7.0
21/10:26pm 26.1 29.6 25.5 96 0.4 ENE 17 24 9 13 1005.3 1005.2 6.6
21/10:00pm 26.1 30.3 25.4 96 0.5 E 13 19 7 10 1005.5 1005.4 5.0
21/09:30pm 26.0 30.6 25.3 96 0.5 E 11 15 6 8 1005.4 1005.3 5.0
21/09:00pm 25.9 28.9 25.2 96 0.5 E 19 24 10 13 1004.6 1004.5 5.0
21/08:30pm 26.0 29.4 25.3 96 0.5 ENE 17 22 9 12 1004.9 1004.8 5.0
21/08:00pm 26.1 29.8 25.2 95 0.6 ENE 15 22 8 12 1004.8 1004.7 5.0
21/07:30pm 26.1 29.6 25.4 96 0.5 ENE 17 22 9 12 1004.4 1004.3 5.0
21/07:00pm 26.0 29.8 25.3 96 0.5 E 15 20 8 11 1003.9 1003.8 5.0
21/06:30pm 26.0 29.7 25.1 95 0.6 ENE 15 20 8 11 1003.7 1003.6 5.0
21/06:00pm 25.9 29.3 25.2 96 0.5 ENE 17 26 9 14 1003.6 1003.5 4.8
21/05:30pm 26.2 29.1 25.1 94 0.8 NE 19 26 10 14 1003.7 1003.6 4.4
21/05:00pm 26.5 30.2 25.2 92 0.9 NE 15 20 8 11 1003.5 1003.4 4.2
21/04:30pm 26.6 29.6 25.3 93 0.9 ENE 19 28 10 15 1003.1 1003.0 3.8
21/04:00pm 27.6 30.8 25.8 90 1.3 ENE 20 28 11 15 1003.2 1003.1 3.4
21/03:49pm 27.4 30.8 25.8 91 1.1 ENE 19 26 10 14 1002.8 1002.7 3.4
21/03:32pm 27.4 30.6 25.8 91 1.1 E 20 32 11 17 1003.1 1003.0 3.4
21/03:30pm 27.4 30.5 25.7 90 1.2 E 20 32 11 17 1003.1 1003.0 3.4
21/03:00pm 27.2 30.6 25.9 93 0.9 ESE 19 26 10 14 1003.0 1002.9 3.4
21/02:30pm 27.2 31.5 26.1 94 0.8 ESE 15 20 8 11 1003.8 1003.7 3.4
21/02:00pm 27.5 32.3 26.2 93 0.9 ESE 13 17 7 9 1004.1 1004.0 3.0
21/01:30pm 27.5 32.6 26.1 92 1.0 ESE 11 17 6 9 1004.8 1004.7 2.6
21/01:00pm 27.8 32.5 26.1 90 1.2 ESE 13 19 7 10 1005.1 1005.0 1.6
21/12:30pm 28.0 33.0 26.0 89 1.4 ESE 11 15 6 8 1005.2 1005.1 1.0
21/12:00pm 27.8 32.7 25.8 89 1.4 ESE 11 13 6 7 1005.3 1005.2 0.8
21/11:30am 27.6 32.0 25.6 89 1.4 ESE 13 17 7 9 1005.7 1005.6 0.6
21/11:00am 27.6 31.8 25.3 87 1.6 ESE 13 17 7 9 1005.9 1005.8 0.6
21/10:30am 27.2 32.2 25.4 90 1.3 ESE 9 15 5 8 1006.2 1006.1 0.6
21/10:00am 26.7 31.6 25.3 92 1.0 ENE 9 15 5 8 1006.7 1006.6 0.4
21/09:30am 26.6 31.5 25.2 92 1.0 ENE 9 17 5 9 1007.0 1006.9 0.4
21/09:00am 26.7 30.3 25.0 90 1.2 ENE 15 26 8 14 1006.6 1006.5 2.6
21/08:30am 27.0 30.0 24.7 87 1.6 ENE 17 22 9 12 1006.5 1006.4 2.4
21/08:00am 27.3 30.0 24.7 86 1.8 ENE 19 24 10 13 1007.1 1007.0 2.4
21/07:30am 26.6 29.6 24.6 89 1.4 ENE 17 22 9 12 1006.9 1006.8 2.4
21/07:00am 26.3 29.5 24.4 89 1.3 ENE 15 20 8 11 1006.4 1006.3 2.4
21/06:30am 26.0 29.0 24.6 92 1.0 ENE 17 22 9 12 1006.2 1006.1 2.4
21/06:00am 25.9 28.6 24.8 94 0.8 ENE 19 28 10 15 1005.8 1005.7 2.4
21/05:30am 25.9 28.4 24.8 94 0.8 E 20 30 11 16 1005.3 1005.2 2.4
21/05:00am 26.0 28.6 24.9 94 0.8 E 20 30 11 16 1005.3 1005.2 2.4
21/04:30am 26.1 28.8 24.8 92 0.9 E 19 26 10 14 1006.0 1005.9 2.0
21/04:00am 26.0 27.7 24.6 92 1.0 E 24 33 13 18 1006.0 1005.9 1.8
21/03:30am 26.3 29.5 25.0 92 0.9 E 17 30 9 16 1006.3 1006.2 1.6
21/03:00am 26.6 29.8 24.9 90 1.2 ENE 17 24 9 13 1006.2 1006.1 0.8
21/02:30am 26.9 30.4 24.9 89 1.4 NE 15 20 8 11 1006.2 1006.1 0.6
21/02:00am 28.3 31.0 24.1 78 2.9 NNE 17 24 9 13 1006.1 1006.0 0.4
21/01:30am 28.1 31.6 24.2 79 2.7 NNE 13 19 7 10 1005.4 1005.3 0.4
21/01:00am 27.6 31.5 24.9 85 1.9 NE 13 17 7 9 1005.5 1005.4 0.4
21/12:30am 27.8 31.9 24.6 83 2.2 NNE 11 17 6 9 1005.8 1005.7 0.4
21/12:00am 27.6 31.8 24.7 84 2.0 NE 11 15 6 8 1006.0 1005.9 0.4
 
Date/Time
WST
Temp
°C
App
Temp
°C
Dew
Point
°C
Rel
Hum
%
Delta-T
°C
Wind Press
QNH
hPa
Press
MSL
hPa
Rain since
9am
mm
Dir  Spd
km/h
Gust
km/h
Spd
kts
Gust
kts
20/11:30pm 27.8 32.4 24.8 84 2.1 N 9 13 5 7 1006.2 1006.1 0.4

Other formats

Comma delimited format used in spreadsheet applications
http://www.bom.gov.au/fwo/IDW60801/IDW60801.94203.axf

JavaScript Object Notation format (JSON) in row-major order
http://www.bom.gov.au/fwo/IDW60801/IDW60801.94203.json

Data quality

Most of these data are generated automatically and are frequently updated. Quality checks on data are not normally performed. It is possible for incorrect values to appear. Refer to information at About Latest Weather Observations and please check the disclaimer before using these data.